Terminal Aerodrome Forecast
Issued by NWS Grand Forks, ND

Home | Current Version | Previous Version | Text Only | Print | Product List | Glossary On
Versions: 1 2 3 4 5 6 7 8 9 10 11 12 13 14 15 16 17 18 19 20 21 22 23 24 25 26 27 28 29 30 31 32
000
FTUS43 KFGF 211944 AAA
TAFFAR
TAF AMD
KFAR 211944Z 2120/2218 14018G27KT 1SM -SN BLSN OVC010
      TEMPO 2120/2123 2SM -SN
     FM212300 13016G24KT P6SM OVC025
     FM220100 13014KT P6SM OVC025
     FM220200 13012KT 2SM -SN OVC015
     FM220400 13009KT 1SM -SN OVC015
     FM221200 34005KT P6SM OVC015=

USA.gov is the U.S. government's official web portal to all federal, state and local government web resources and services.